Time;durP1;ratioP1;P1;durP2;ratioP2;P2;SDS_P1;SDS_P2;PMS_P1;PMS_P2;Temp;Humidity;BMP_temperature;BMP_pressure;BME280_temperature;BME280_humidity;BME280_pressure;Samples;Min_cycle;Max_cycle;Signal;HPM_P1;HPM_P2
2023/01/14 00:02:18;;;;;;;36.83;5.70;;;10.20;94.30;;;;;;5083742;28;20036;-60
2023/01/14 00:04:44;;;;;;;38.45;6.82;;;10.20;94.30;;;;;;5084830;28;20051;-60
2023/01/14 00:07:09;;;;;;;33.80;5.75;;;10.20;94.40;;;;;;5066942;28;20024;-60
2023/01/14 00:09:35;;;;;;;37.90;5.93;;;10.20;94.30;;;;;;5085046;28;20066;-60
2023/01/14 00:12:00;;;;;;;40.13;6.07;;;10.20;94.30;;;;;;5083598;28;20452;-60
2023/01/14 00:14:30;;;;;;;44.75;5.97;;;10.20;94.30;;;;;;5084673;28;20369;-60
2023/01/14 00:16:56;;;;;;;40.55;5.45;;;10.20;94.30;;;;;;5083351;28;20041;-60
2023/01/14 00:19:22;;;;;;;32.53;5.88;;;10.20;94.30;;;;;;5083477;28;20033;-60
2023/01/14 00:21:47;;;;;;;38.70;5.57;;;10.20;94.30;;;;;;5084829;28;20044;-60
2023/01/14 00:24:14;;;;;;;29.45;5.43;;;10.10;94.30;;;;;;5066463;28;20044;-60
2023/01/14 00:26:40;;;;;;;30.55;5.28;;;10.10;94.30;;;;;;5083266;28;20024;-60
2023/01/14 00:29:06;;;;;;;28.65;5.95;;;10.10;94.30;;;;;;5083488;28;20031;-60
2023/01/14 00:31:32;;;;;;;38.97;5.40;;;10.10;94.40;;;;;;5066461;28;20025;-60
2023/01/14 00:33:59;;;;;;;28.75;5.95;;;10.00;94.40;;;;;;5084437;28;20043;-60
2023/01/14 00:36:25;;;;;;;33.08;5.10;;;10.00;94.40;;;;;;5083275;28;20046;-60
2023/01/14 00:38:51;;;;;;;34.13;6.10;;;10.00;94.40;;;;;;5066433;28;20024;-60
2023/01/14 00:41:18;;;;;;;31.52;5.40;;;10.00;94.40;;;;;;5083433;28;20068;-60
2023/01/14 00:43:45;;;;;;;26.55;5.00;;;10.00;94.30;;;;;;5082988;28;20199;-60
2023/01/14 00:46:13;;;;;;;30.38;4.53;;;10.00;94.30;;;;;;5083124;28;20029;-60
2023/01/14 00:48:39;;;;;;;21.35;4.43;;;10.00;94.30;;;;;;5066487;28;20044;-60
2023/01/14 00:51:05;;;;;;;33.92;4.95;;;9.90;94.20;;;;;;5082902;28;20044;-61
2023/01/14 00:53:30;;;;;;;25.13;4.35;;;9.90;94.20;;;;;;5066554;28;20400;-60
2023/01/14 00:55:56;;;;;;;18.35;4.68;;;9.90;94.30;;;;;;5083233;28;20485;-60
2023/01/14 00:58:22;;;;;;;17.83;4.22;;;9.90;94.30;;;;;;5083412;28;20028;-60
2023/01/14 01:00:47;;;;;;;20.98;3.75;;;9.90;94.30;;;;;;5083326;28;20187;-60
2023/01/14 01:03:13;;;;;;;25.50;3.78;;;9.90;94.20;;;;;;5083069;28;20035;-60
2023/01/14 01:05:39;;;;;;;28.15;4.68;;;9.80;94.20;;;;;;5085518;28;20029;-60
2023/01/14 01:08:05;;;;;;;18.33;4.55;;;9.80;94.20;;;;;;5086568;28;20088;-60
2023/01/14 01:10:30;;;;;;;15.93;3.88;;;9.80;94.10;;;;;;5086655;28;20028;-60
2023/01/14 01:12:56;;;;;;;22.10;3.75;;;9.80;94.10;;;;;;5086526;28;20021;-60
2023/01/14 01:15:22;;;;;;;18.90;3.65;;;9.90;94.00;;;;;;5086459;28;20028;-60
2023/01/14 01:17:47;;;;;;;27.90;4.60;;;9.80;94.10;;;;;;5069636;28;20032;-59
2023/01/14 01:20:13;;;;;;;18.73;4.00;;;9.80;94.10;;;;;;5086326;28;20055;-60
2023/01/14 01:22:38;;;;;;;14.32;3.28;;;9.80;94.20;;;;;;5086080;28;20033;-60
2023/01/14 01:25:04;;;;;;;21.70;3.63;;;9.80;94.20;;;;;;5086059;28;20139;-60
2023/01/14 01:27:30;;;;;;;26.05;3.78;;;9.80;94.10;;;;;;5086197;28;20029;-60
2023/01/14 01:29:56;;;;;;;17.35;3.75;;;9.70;94.20;;;;;;5086159;28;20035;-60
2023/01/14 01:32:21;;;;;;;28.33;4.00;;;9.70;94.20;;;;;;5085989;28;20040;-60
2023/01/14 01:34:47;;;;;;;22.92;3.53;;;9.70;94.20;;;;;;5087417;28;20016;-60
2023/01/14 01:37:12;;;;;;;17.65;3.63;;;9.70;94.20;;;;;;5087606;28;20040;-60
2023/01/14 01:39:38;;;;;;;18.05;3.67;;;9.70;94.20;;;;;;5086036;28;20223;-60
2023/01/14 01:42:04;;;;;;;19.42;3.45;;;9.70;94.30;;;;;;5086020;28;20044;-60
2023/01/14 01:44:29;;;;;;;17.35;3.88;;;9.70;94.30;;;;;;5085928;28;20036;-60
2023/01/14 01:46:55;;;;;;;12.88;3.15;;;9.70;94.30;;;;;;5087440;28;20039;-60
2023/01/14 01:49:23;;;;;;;21.48;3.85;;;9.70;94.30;;;;;;5086145;28;20025;-60
2023/01/14 01:52:03;;;;;;;12.10;3.35;;;9.70;94.30;;;;;;5085888;28;20370;-60
2023/01/14 01:54:32;;;;;;;16.38;3.30;;;9.70;94.30;;;;;;5087133;28;20092;-60
2023/01/14 01:56:58;;;;;;;22.58;3.85;;;9.70;94.30;;;;;;5085663;28;20039;-59
2023/01/14 01:59:25;;;;;;;17.52;3.40;;;9.70;94.30;;;;;;5085686;28;20107;-60
2023/01/14 02:01:51;;;;;;;15.50;2.97;;;9.70;94.40;;;;;;5085576;28;20472;-60
2023/01/14 02:04:17;;;;;;;22.65;3.83;;;9.70;94.40;;;;;;5085633;28;20481;-60
2023/01/14 02:06:42;;;;;;;17.17;3.42;;;9.70;94.30;;;;;;5085582;28;20121;-60
2023/01/14 02:09:08;;;;;;;13.07;3.15;;;9.70;94.30;;;;;;5085420;28;20395;-60
2023/01/14 02:11:45;;;;;;;15.18;3.58;;;9.70;94.30;;;;;;5085538;28;20455;-60
2023/01/14 02:14:34;;;;;;;15.57;3.17;;;9.70;94.30;;;;;;5085455;28;20052;-59
2023/01/14 02:17:28;;;;;;;12.40;3.10;;;9.70;94.30;;;;;;5084772;28;20082;-59
2023/01/14 02:19:59;;;;;;;15.63;3.17;;;9.60;94.30;;;;;;5085346;28;20473;-60
2023/01/14 02:22:30;;;;;;;11.88;3.25;;;9.60;94.40;;;;;;5086680;28;20044;-60
2023/01/14 02:25:33;;;;;;;9.05;2.70;;;9.60;94.40;;;;;;5085073;28;20031;-59
2023/01/14 02:28:15;;;;;;;16.15;3.45;;;9.60;94.50;;;;;;5086675;28;20020;-59
2023/01/14 02:31:02;;;;;;;14.52;3.30;;;9.60;94.40;;;;;;5085158;28;20025;-60
2023/01/14 02:33:32;;;;;;;13.57;3.55;;;9.60;94.50;;;;;;5084925;28;20052;-60
2023/01/14 02:36:06;;;;;;;15.05;2.88;;;9.60;94.50;;;;;;5084962;28;20037;-59
2023/01/14 02:38:52;;;;;;;12.55;3.05;;;9.60;94.60;;;;;;5084826;28;20036;-59
2023/01/14 02:44:07;;;;;;;9.93;2.92;;;9.50;94.50;;;;;;5085121;28;20029;-60
2023/01/14 02:44:15;;;;;;;12.98;2.78;;;9.50;94.60;;;;;;5084622;28;20044;-60
2023/01/14 02:46:51;;;;;;;10.20;3.00;;;9.50;94.90;;;;;;5084625;28;20025;-60
2023/01/14 02:49:23;;;;;;;6.78;2.47;;;9.50;94.60;;;;;;5084858;28;20021;-60
2023/01/14 02:51:48;;;;;;;8.52;2.75;;;9.50;94.60;;;;;;5084674;28;20113;-60
2023/01/14 02:54:16;;;;;;;12.98;3.20;;;9.50;94.60;;;;;;5084943;28;20032;-60
2023/01/14 02:56:42;;;;;;;13.70;3.10;;;9.50;94.60;;;;;;5084590;28;20059;-60
2023/01/14 02:59:17;;;;;;;10.65;2.60;;;9.50;94.70;;;;;;5068084;28;20033;-59
2023/01/14 03:02:16;;;;;;;7.95;2.92;;;9.50;94.70;;;;;;5085865;28;20414;-60
2023/01/14 03:05:11;;;;;;;16.10;3.33;;;9.40;94.70;;;;;;5085586;28;20033;-60
2023/01/14 03:07:55;;;;;;;11.57;3.67;;;9.40;94.70;;;;;;5085137;28;20040;-60
2023/01/14 03:10:26;;;;;;;9.20;2.72;;;9.40;94.70;;;;;;5084287;28;20025;-59
2023/01/14 03:13:32;;;;;;;11.27;3.22;;;9.40;94.70;;;;;;5084363;28;20029;-60
2023/01/14 03:16:04;;;;;;;11.45;3.25;;;9.40;94.70;;;;;;5066583;28;20025;-60
2023/01/14 03:18:32;;;;;;;10.00;2.72;;;9.40;94.70;;;;;;5083093;28;20146;-60
2023/01/14 03:21:07;;;;;;;12.77;3.25;;;9.40;94.80;;;;;;5074312;28;20033;-59
2023/01/14 03:23:34;;;;;;;10.55;3.00;;;9.40;94.80;;;;;;5083987;28;20025;-60
2023/01/14 03:26:00;;;;;;;9.63;2.72;;;9.40;94.80;;;;;;5084001;28;20029;-59
2023/01/14 03:28:30;;;;;;;9.98;2.67;;;9.40;94.80;;;;;;5083505;28;20051;-60
2023/01/14 03:31:00;;;;;;;9.25;2.70;;;9.30;94.80;;;;;;5083529;28;20025;-60
2023/01/14 03:33:29;;;;;;;11.88;2.50;;;9.30;94.80;;;;;;5084092;28;20104;-59
2023/01/14 03:35:55;;;;;;;7.68;3.08;;;9.30;94.80;;;;;;5084016;28;20016;-60
2023/01/14 03:38:50;;;;;;;13.38;3.45;;;9.30;94.90;;;;;;5084047;28;20096;-60
2023/01/14 03:44:01;;;;;;;10.10;3.05;;;9.30;94.80;;;;;;5083940;28;20482;-59
2023/01/14 03:46:26;;;;;;;10.07;3.55;;;9.30;94.80;;;;;;5083689;28;20099;-60
2023/01/14 03:48:52;;;;;;;13.63;3.53;;;9.30;94.80;;;;;;5083806;28;20025;-60
2023/01/14 03:51:22;;;;;;;18.75;3.45;;;9.30;94.80;;;;;;5066925;28;20028;-60
2023/01/14 03:53:56;;;;;;;9.93;3.65;;;9.30;94.80;;;;;;5083559;28;20028;-60
2023/01/14 03:56:27;;;;;;;14.68;3.08;;;9.30;94.80;;;;;;5084950;28;20028;-60
2023/01/14 03:58:54;;;;;;;9.48;3.53;;;9.30;94.80;;;;;;5083639;28;20036;-60
2023/01/14 04:01:44;;;;;;;14.15;3.35;;;9.30;94.90;;;;;;5083608;28;20048;-60
2023/01/14 04:04:10;;;;;;;13.90;3.53;;;9.20;94.90;;;;;;5083642;28;20036;-60
2023/01/14 04:06:36;;;;;;;12.23;3.35;;;9.20;94.80;;;;;;5083662;28;20082;-60
2023/01/14 04:09:03;;;;;;;10.25;3.55;;;9.30;95.20;;;;;;5083791;28;20032;-60
2023/01/14 04:11:29;;;;;;;15.27;3.40;;;9.20;94.90;;;;;;5084867;28;20040;-59
2023/01/14 04:16:38;;;;;;;11.50;3.03;;;9.20;95.10;;;;;;5084910;28;20133;-59
2023/01/14 04:19:04;;;;;;;12.15;3.42;;;9.20;95.10;;;;;;5066516;28;20025;-60
2023/01/14 04:21:29;;;;;;;10.75;3.53;;;9.20;95.10;;;;;;5083598;28;20029;-60
2023/01/14 04:23:55;;;;;;;10.77;3.75;;;9.20;95.20;;;;;;5083095;28;20085;-60
2023/01/14 04:26:20;;;;;;;9.77;3.65;;;9.20;95.20;;;;;;5084714;28;20024;-60
2023/01/14 04:28:46;;;;;;;7.32;3.28;;;9.20;95.20;;;;;;5084734;28;20032;-60
2023/01/14 04:31:12;;;;;;;9.40;3.80;;;9.20;95.30;;;;;;5084819;28;20028;-59
2023/01/14 04:33:37;;;;;;;9.18;3.50;;;9.20;95.30;;;;;;5084635;28;20029;-60
2023/01/14 04:36:03;;;;;;;9.95;3.70;;;9.30;95.40;;;;;;5082782;28;20033;-60
2023/01/14 04:38:28;;;;;;;14.45;3.53;;;9.30;95.30;;;;;;5084398;28;20086;-60
2023/01/14 04:40:57;;;;;;;13.05;3.47;;;9.30;95.30;;;;;;5086142;28;20109;-60
2023/01/14 04:43:23;;;;;;;9.82;3.30;;;9.30;95.30;;;;;;5088228;28;20028;-60
2023/01/14 04:45:52;;;;;;;14.73;4.13;;;9.20;95.20;;;;;;5086924;28;20233;-60
2023/01/14 04:48:18;;;;;;;9.27;3.22;;;9.30;95.20;;;;;;5088324;28;20051;-60
2023/01/14 04:50:47;;;;;;;9.68;3.95;;;9.30;95.20;;;;;;5086974;28;20425;-60
2023/01/14 04:53:23;;;;;;;12.68;4.18;;;9.20;95.10;;;;;;5086734;28;20130;-60
2023/01/14 04:55:55;;;;;;;10.30;3.78;;;9.20;95.00;;;;;;5087273;28;20210;-59
2023/01/14 04:58:21;;;;;;;9.48;3.55;;;9.30;94.90;;;;;;5086952;28;20029;-60
2023/01/14 05:00:46;;;;;;;6.78;3.35;;;9.30;94.80;;;;;;5087018;28;20040;-60
2023/01/14 05:03:13;;;;;;;10.63;3.75;;;9.30;94.70;;;;;;5086585;28;20025;-60
2023/01/14 05:05:38;;;;;;;10.70;3.58;;;9.30;94.70;;;;;;5086672;28;20029;-60
2023/01/14 05:08:05;;;;;;;11.05;3.88;;;9.20;94.60;;;;;;5087997;28;20028;-60
2023/01/14 05:10:31;;;;;;;13.10;4.25;;;9.30;94.70;;;;;;5087926;28;20032;-60
2023/01/14 05:12:56;;;;;;;8.52;3.65;;;9.30;94.60;;;;;;5086668;28;20035;-60
2023/01/14 05:15:32;;;;;;;14.32;3.38;;;9.30;94.60;;;;;;5086570;28;20120;-59
2023/01/14 05:17:58;;;;;;;9.73;3.80;;;9.30;94.60;;;;;;5086573;28;20033;-59
2023/01/14 05:20:24;;;;;;;8.85;3.13;;;9.30;94.70;;;;;;5086368;28;20032;-60
2023/01/14 05:22:50;;;;;;;7.45;3.65;;;9.20;94.90;;;;;;5069604;28;20039;-60
2023/01/14 05:25:16;;;;;;;12.68;3.15;;;9.20;94.60;;;;;;5086627;28;20043;-60
2023/01/14 05:27:41;;;;;;;8.68;3.05;;;9.20;94.60;;;;;;5086437;28;20029;-59
2023/01/14 05:30:08;;;;;;;10.10;3.35;;;9.30;94.60;;;;;;5087455;28;20024;-60
2023/01/14 05:32:33;;;;;;;8.02;2.90;;;9.30;94.60;;;;;;5086148;28;20171;-60
2023/01/14 05:34:59;;;;;;;8.88;3.15;;;9.30;94.60;;;;;;5087491;28;20024;-59
2023/01/14 05:37:24;;;;;;;10.18;3.42;;;9.30;94.50;;;;;;5085905;28;20029;-60
2023/01/14 05:39:50;;;;;;;10.55;3.45;;;9.30;94.50;;;;;;5085824;28;20471;-59
2023/01/14 05:47:43;;;;;;;8.13;3.00;;;9.30;94.50;;;;;;5086236;28;20058;-60
2023/01/14 05:50:12;;;;;;;11.02;3.05;;;9.30;94.50;;;;;;5085856;28;20092;-60
2023/01/14 05:52:37;;;;;;;6.53;2.67;;;9.20;94.50;;;;;;5084850;28;20032;-60
2023/01/14 05:55:03;;;;;;;6.47;2.83;;;9.30;94.50;;;;;;5087344;28;20024;-60
2023/01/14 05:57:29;;;;;;;7.85;2.67;;;9.30;94.50;;;;;;5069004;28;20094;-60
2023/01/14 05:59:54;;;;;;;8.57;2.83;;;9.30;94.60;;;;;;5087080;28;20089;-60
2023/01/14 06:07:48;;;;;;;13.63;4.32;;;9.30;94.60;;;;;;5086024;28;20043;-59
2023/01/14 06:10:14;;;;;;;8.13;4.05;;;9.20;94.50;;;;;;5085309;28;20024;-60
2023/01/14 06:12:57;;;;;;;7.82;3.78;;;9.30;94.60;;;;;;5086790;28;20100;-60
2023/01/14 06:15:29;;;;;;;7.82;3.72;;;9.30;94.60;;;;;;5085167;28;20092;-60
2023/01/14 06:17:58;;;;;;;8.30;3.28;;;9.20;94.50;;;;;;5085341;28;20036;-60
2023/01/14 06:20:24;;;;;;;11.95;3.90;;;9.30;94.60;;;;;;5086519;28;20062;-60
2023/01/14 06:22:53;;;;;;;8.20;3.33;;;9.20;94.60;;;;;;5085382;28;20449;-60
2023/01/14 06:25:19;;;;;;;8.30;3.65;;;9.20;94.60;;;;;;5085273;28;20033;-59
2023/01/14 06:27:44;;;;;;;8.32;3.33;;;9.30;94.60;;;;;;5086693;28;20063;-59
2023/01/14 06:30:10;;;;;;;8.98;3.58;;;9.30;94.60;;;;;;5086262;28;20025;-60
2023/01/14 06:32:36;;;;;;;9.82;3.53;;;9.20;94.60;;;;;;5086545;28;20123;-59
2023/01/14 06:35:01;;;;;;;8.18;3.22;;;9.30;94.60;;;;;;5084926;28;20128;-60
2023/01/14 06:37:27;;;;;;;8.02;3.05;;;9.20;94.50;;;;;;5085106;28;20436;-60
2023/01/14 06:39:52;;;;;;;10.93;3.70;;;9.20;94.50;;;;;;5084833;28;20046;-60
2023/01/14 06:42:18;;;;;;;7.15;2.90;;;9.20;94.60;;;;;;5084889;28;20051;-59
2023/01/14 06:44:43;;;;;;;8.10;2.92;;;9.20;94.60;;;;;;5085895;28;20040;-60
2023/01/14 06:47:09;;;;;;;8.50;3.00;;;9.20;94.60;;;;;;5084656;28;20029;-60
2023/01/14 06:49:34;;;;;;;5.28;2.90;;;9.20;94.60;;;;;;5084616;28;20032;-60
2023/01/14 06:52:00;;;;;;;8.68;3.40;;;9.20;94.60;;;;;;5084611;28;20055;-59
2023/01/14 06:54:25;;;;;;;5.70;2.55;;;9.20;94.60;;;;;;5084583;28;20032;-60
2023/01/14 06:56:51;;;;;;;5.93;2.90;;;9.20;94.60;;;;;;5084757;28;20058;-60
2023/01/14 06:59:16;;;;;;;5.78;3.15;;;9.20;94.60;;;;;;5084564;28;20078;-59
2023/01/14 07:01:42;;;;;;;6.82;2.70;;;9.20;94.60;;;;;;5084581;28;20033;-60
2023/01/14 07:04:08;;;;;;;12.02;3.45;;;9.20;94.70;;;;;;5084225;28;20029;-60
2023/01/14 07:06:33;;;;;;;7.93;2.97;;;9.20;94.70;;;;;;5084404;28;20020;-60
2023/01/14 07:08:59;;;;;;;7.70;3.30;;;9.10;94.70;;;;;;5085925;28;20028;-60
2023/01/14 07:11:24;;;;;;;7.35;2.90;;;9.10;95.00;;;;;;5085618;28;20081;-60
2023/01/14 07:13:50;;;;;;;7.00;2.92;;;9.10;94.70;;;;;;5084232;28;20036;-58
2023/01/14 07:16:15;;;;;;;7.88;2.72;;;9.10;94.70;;;;;;5085680;28;20056;-60
2023/01/14 07:18:41;;;;;;;6.45;2.78;;;9.10;94.80;;;;;;5084148;28;20195;-60
2023/01/14 07:21:06;;;;;;;7.25;2.75;;;9.10;94.80;;;;;;5084178;28;20039;-60
2023/01/14 07:23:32;;;;;;;8.07;2.47;;;9.10;94.80;;;;;;5083815;28;20052;-60
2023/01/14 07:25:57;;;;;;;8.68;3.00;;;9.10;94.80;;;;;;5083895;28;20151;-60
2023/01/14 07:28:24;;;;;;;7.97;2.80;;;9.10;94.80;;;;;;5085418;28;20155;-60
2023/01/14 07:30:51;;;;;;;5.40;2.67;;;9.10;94.80;;;;;;5083600;28;20055;-60
2023/01/14 07:33:17;;;;;;;6.50;2.78;;;9.00;94.80;;;;;;5083950;28;20033;-60
2023/01/14 07:35:44;;;;;;;11.90;2.60;;;9.10;94.90;;;;;;5083699;28;20017;-59
2023/01/14 07:38:10;;;;;;;6.43;2.78;;;9.00;94.80;;;;;;5083607;28;20035;-59
2023/01/14 07:40:37;;;;;;;5.95;2.67;;;9.00;94.90;;;;;;5083590;28;20084;-60
2023/01/14 07:43:03;;;;;;;5.20;2.45;;;9.00;94.80;;;;;;5085187;28;20092;-59
2023/01/14 07:45:29;;;;;;;7.57;2.53;;;9.00;94.80;;;;;;5083467;28;20052;-60
2023/01/14 07:47:55;;;;;;;8.63;2.50;;;9.00;94.80;;;;;;5085072;28;20021;-59
2023/01/14 07:50:21;;;;;;;5.85;3.03;;;9.00;94.90;;;;;;5066972;28;20020;-60
2023/01/14 07:52:53;;;;;;;5.68;2.30;;;9.00;94.80;;;;;;5085138;28;20384;-59
2023/01/14 07:55:19;;;;;;;6.78;2.58;;;9.00;94.80;;;;;;5083503;28;20029;-60
2023/01/14 07:57:45;;;;;;;5.28;2.55;;;9.00;94.80;;;;;;5083733;28;20116;-60
2023/01/14 08:00:11;;;;;;;7.97;2.70;;;9.00;94.80;;;;;;5083518;28;20028;-60
2023/01/14 08:02:36;;;;;;;4.80;2.58;;;9.00;94.70;;;;;;5084866;28;20099;-59
2023/01/14 08:05:03;;;;;;;5.35;2.30;;;9.00;94.70;;;;;;5083300;28;20090;-60
2023/01/14 08:07:28;;;;;;;5.43;2.20;;;9.00;94.70;;;;;;5083416;28;20040;-60
2023/01/14 08:09:54;;;;;;;5.20;2.30;;;9.00;94.70;;;;;;5083346;28;20024;-60
2023/01/14 08:12:19;;;;;;;7.55;2.45;;;9.00;94.70;;;;;;5084960;28;20039;-60
2023/01/14 08:14:45;;;;;;;7.65;2.50;;;9.00;94.70;;;;;;5085540;28;20084;-59
2023/01/14 08:17:10;;;;;;;7.40;2.40;;;9.00;94.70;;;;;;5091237;28;20024;-60
2023/01/14 08:19:36;;;;;;;4.43;2.00;;;9.00;94.70;;;;;;5090339;28;20387;-59
2023/01/14 08:22:01;;;;;;;6.15;2.20;;;9.00;94.70;;;;;;5090084;28;20457;-60
2023/01/14 08:24:27;;;;;;;8.52;2.53;;;9.00;94.70;;;;;;5089834;28;20548;-60
2023/01/14 08:26:52;;;;;;;5.22;2.08;;;9.00;95.00;;;;;;5091513;28;20437;-59
2023/01/14 08:29:18;;;;;;;6.60;2.20;;;9.00;94.70;;;;;;5090233;28;20041;-59
2023/01/14 08:31:44;;;;;;;6.60;2.60;;;9.00;94.70;;;;;;5089924;28;20020;-59
2023/01/14 08:34:12;;;;;;;4.35;2.00;;;9.00;94.80;;;;;;5072516;28;20066;-59
2023/01/14 08:36:37;;;;;;;5.88;2.28;;;8.90;94.70;;;;;;5088639;28;20024;-59
2023/01/14 08:39:03;;;;;;;4.88;1.95;;;9.00;94.70;;;;;;5089430;28;20067;-59
2023/01/14 08:41:28;;;;;;;5.80;2.63;;;8.90;94.70;;;;;;5089679;28;20036;-59
2023/01/14 08:43:54;;;;;;;3.63;2.08;;;9.00;94.70;;;;;;5090784;28;20083;-59
2023/01/14 08:46:19;;;;;;;6.40;2.33;;;9.00;94.70;;;;;;5089900;28;20131;-59
2023/01/14 08:48:45;;;;;;;6.07;1.98;;;9.00;94.70;;;;;;5073047;28;20050;-59
2023/01/14 08:51:11;;;;;;;4.55;2.15;;;9.00;94.70;;;;;;5090628;28;20021;-59
2023/01/14 08:53:37;;;;;;;4.88;1.92;;;9.00;94.70;;;;;;5089595;28;20039;-59
2023/01/14 08:56:03;;;;;;;5.28;2.10;;;9.00;94.60;;;;;;5072893;28;20021;-59
2023/01/14 08:58:29;;;;;;;4.28;1.70;;;9.00;94.60;;;;;;5090950;28;20037;-59
2023/01/14 09:00:59;;;;;;;5.32;2.17;;;9.00;94.60;;;;;;5089529;28;20056;-60
2023/01/14 09:03:27;;;;;;;6.15;1.92;;;9.00;94.60;;;;;;5090901;28;20040;-59
2023/01/14 09:05:56;;;;;;;4.50;2.00;;;9.00;94.60;;;;;;5089515;28;20024;-60
2023/01/14 09:17:05;;;;;;;12.15;2.80;;;9.00;94.60;;;;;;5062048;28;20128;-60
2023/01/14 09:19:35;;;;;;;18.77;4.53;;;9.00;94.60;;;;;;5084066;28;20084;-59
2023/01/14 09:22:01;;;;;;;13.85;3.58;;;9.10;94.70;;;;;;5069205;28;20083;-59
2023/01/14 09:24:27;;;;;;;26.92;5.38;;;9.10;94.70;;;;;;5068464;28;20029;-60
2023/01/14 09:26:52;;;;;;;32.85;4.53;;;9.10;94.70;;;;;;5094428;28;20059;-60
2023/01/14 09:29:18;;;;;;;47.78;5.88;;;9.10;94.80;;;;;;5102778;28;20028;-60
2023/01/14 09:31:43;;;;;;;28.45;4.25;;;9.10;94.80;;;;;;5102722;28;20029;-56
2023/01/14 09:34:09;;;;;;;40.10;6.07;;;9.20;94.90;;;;;;5102805;28;20040;-57
2023/01/14 09:36:34;;;;;;;36.72;4.32;;;9.20;94.90;;;;;;5087180;28;20033;-57
2023/01/14 09:39:00;;;;;;;43.85;5.95;;;9.20;94.90;;;;;;5102476;28;20104;-57
2023/01/14 09:41:37;;;;;;;57.28;8.35;;;9.20;94.90;;;;;;5085358;28;20036;-57
2023/01/14 09:44:04;;;;;;;81.55;8.85;;;9.20;94.90;;;;;;5085948;28;20040;-56
2023/01/14 09:46:30;;;;;;;95.45;10.52;;;9.30;95.00;;;;;;5086848;28;20032;-57
2023/01/14 09:48:56;;;;;;;107.93;10.48;;;9.30;95.50;;;;;;5085129;28;20029;-57
2023/01/14 09:51:34;;;;;;;93.95;11.55;;;9.40;95.40;;;;;;5084397;28;20055;-57
2023/01/14 09:54:22;;;;;;;98.47;10.60;;;9.40;95.40;;;;;;5086023;28;20024;-56
2023/01/14 09:57:01;;;;;;;122.95;14.18;;;9.50;95.40;;;;;;5085898;28;20028;-57
2023/01/14 09:59:56;;;;;;;138.00;14.65;;;9.50;95.50;;;;;;5082933;28;20055;-57
2023/01/14 10:02:30;;;;;;;159.85;17.13;;;9.50;95.50;;;;;;5067685;28;20029;-57
2023/01/14 10:05:04;;;;;;;142.18;15.10;;;9.60;95.40;;;;;;5091324;28;20044;-57
2023/01/14 10:07:30;;;;;;;204.40;19.13;;;9.60;95.50;;;;;;5085809;28;20036;-57
2023/01/14 10:09:57;;;;;;;147.88;14.88;;;9.70;95.60;;;;;;5084372;28;20116;-57
2023/01/14 10:12:26;;;;;;;140.00;13.55;;;9.70;95.60;;;;;;5086417;28;20020;-56
2023/01/14 10:15:03;;;;;;;115.13;13.10;;;9.70;95.50;;;;;;5096950;28;20043;-57
2023/01/14 10:17:34;;;;;;;154.27;15.35;;;9.70;95.40;;;;;;5081715;28;20029;-57
2023/01/14 10:20:04;;;;;;;145.18;16.42;;;9.80;95.40;;;;;;5096126;28;20038;-57
2023/01/14 10:22:42;;;;;;;176.65;17.88;;;9.80;95.40;;;;;;5084274;28;20325;-57
2023/01/14 10:25:19;;;;;;;187.93;18.02;;;9.80;95.50;;;;;;5101230;28;20024;-57
2023/01/14 10:27:47;;;;;;;190.52;19.77;;;9.80;95.60;;;;;;5101473;28;20044;-57
2023/01/14 10:30:19;;;;;;;183.48;19.83;;;9.90;95.70;;;;;;5084286;28;20027;-57
2023/01/14 10:32:46;;;;;;;173.23;18.85;;;9.90;95.70;;;;;;5085158;28;20077;-57
2023/01/14 10:35:12;;;;;;;235.45;23.55;;;10.00;95.60;;;;;;5084254;28;20468;-57
2023/01/14 10:37:37;;;;;;;212.57;21.50;;;10.00;95.60;;;;;;5084330;28;20107;-57
2023/01/14 10:40:03;;;;;;;236.02;24.58;;;10.00;95.70;;;;;;5085586;28;20046;-56
2023/01/14 10:42:29;;;;;;;208.65;23.40;;;10.10;95.70;;;;;;5064454;28;20064;-57
2023/01/14 10:44:55;;;;;;;227.70;24.88;;;10.20;95.80;;;;;;5064264;28;20066;-57
2023/01/14 10:47:20;;;;;;;272.35;26.85;;;10.20;95.80;;;;;;5064799;28;20140;-57
2023/01/14 10:49:57;;;;;;;232.85;24.48;;;10.20;95.80;;;;;;5081507;28;20123;-57
2023/01/14 10:52:30;;;;;;;242.43;24.25;;;10.20;95.90;;;;;;5082756;28;20052;-57
2023/01/14 10:55:11;;;;;;;226.43;23.98;;;10.30;96.00;;;;;;5100060;28;20480;-57
2023/01/14 10:57:47;;;;;;;245.63;26.13;;;10.30;96.00;;;;;;5085280;28;20047;-57
2023/01/14 11:00:42;;;;;;;282.58;28.50;;;10.40;95.90;;;;;;5075160;28;20021;-56
2023/01/14 11:03:28;;;;;;;317.80;32.33;;;10.40;96.20;;;;;;5049083;28;20024;-57
2023/01/14 11:05:59;;;;;;;267.52;26.65;;;10.40;95.80;;;;;;5063626;28;20037;-56
2023/01/14 11:08:31;;;;;;;307.58;29.90;;;10.50;95.90;;;;;;5074151;28;20020;-57
2023/01/14 11:10:59;;;;;;;280.75;27.15;;;10.50;96.10;;;;;;5084243;28;20032;-57
2023/01/14 11:13:32;;;;;;;236.30;24.95;;;10.50;95.90;;;;;;5083759;28;20048;-56
2023/01/14 11:15:58;;;;;;;270.13;29.02;;;10.60;95.80;;;;;;5083744;28;20036;-57
2023/01/14 11:18:24;;;;;;;228.55;25.40;;;10.60;95.70;;;;;;5083274;28;20040;-57
2023/01/14 11:21:07;;;;;;;266.25;29.52;;;10.60;95.60;;;;;;5083063;28;20334;-57
2023/01/14 11:23:40;;;;;;;210.07;25.05;;;10.60;95.50;;;;;;5100320;28;20044;-56
2023/01/14 11:26:10;;;;;;;249.20;26.25;;;10.70;95.50;;;;;;5083634;28;20031;-57
2023/01/14 11:28:37;;;;;;;272.15;28.35;;;10.70;95.60;;;;;;5082694;28;20024;-57
2023/01/14 11:31:02;;;;;;;245.60;24.63;;;10.70;95.50;;;;;;5083143;28;20025;-57
2023/01/14 11:33:28;;;;;;;264.77;27.15;;;10.70;95.30;;;;;;5082978;28;20065;-56
2023/01/14 11:36:00;;;;;;;270.05;29.15;;;10.70;95.30;;;;;;5083631;28;20032;-57
2023/01/14 11:38:26;;;;;;;227.88;27.40;;;10.70;95.20;;;;;;5083383;28;20088;-56
2023/01/14 11:43:51;;;;;;;249.73;28.25;;;10.80;95.20;;;;;;5083245;28;20039;-57
2023/01/14 11:46:17;;;;;;;256.35;26.95;;;10.80;95.10;;;;;;5083717;28;20082;-57
2023/01/14 11:48:42;;;;;;;277.00;31.23;;;10.80;95.10;;;;;;5083095;28;20036;-57
2023/01/14 11:51:19;;;;;;;247.65;27.42;;;10.80;95.10;;;;;;5081391;28;20040;-57
2023/01/14 11:53:49;;;;;;;251.80;28.15;;;10.80;94.90;;;;;;5053084;28;20033;-56
2023/01/14 11:56:44;;;;;;;300.83;31.85;;;10.80;94.80;;;;;;5095451;28;20052;-57
2023/01/14 11:59:26;;;;;;;232.02;24.45;;;10.80;94.80;;;;;;5053489;28;20048;-57
2023/01/14 12:02:17;;;;;;;216.23;24.13;;;10.90;94.60;;;;;;5078702;28;20044;-56
2023/01/14 12:04:53;;;;;;;161.20;17.63;;;10.90;94.50;;;;;;5096819;28;20036;-57
2023/01/14 12:07:39;;;;;;;201.55;23.00;;;10.90;94.30;;;;;;5078608;28;20025;-57
2023/01/14 12:10:20;;;;;;;169.65;18.98;;;10.90;94.30;;;;;;5098599;28;20036;-57
2023/01/14 12:18:42;;;;;;;190.60;20.33;;;11.00;93.90;;;;;;5063318;28;20051;-56
2023/01/14 12:21:08;;;;;;;178.57;19.88;;;11.00;93.80;;;;;;5080597;28;20115;-57
2023/01/14 12:23:40;;;;;;;168.52;20.63;;;11.00;93.70;;;;;;5064293;28;20370;-57
2023/01/14 12:26:12;;;;;;;153.45;17.65;;;11.10;93.90;;;;;;5063047;28;20021;-57
2023/01/14 12:28:39;;;;;;;180.90;20.30;;;11.10;93.80;;;;;;5062721;28;20040;-57
2023/01/14 12:31:19;;;;;;;172.00;18.42;;;11.10;93.90;;;;;;5062886;28;20025;-57
2023/01/14 12:33:47;;;;;;;211.57;25.50;;;11.10;94.10;;;;;;5062531;28;20033;-57
2023/01/14 12:36:29;;;;;;;157.60;18.80;;;11.10;94.10;;;;;;5065809;28;20046;-57
2023/01/14 12:47:34;;;;;;;161.18;17.48;;;11.30;93.20;;;;;;5082820;28;20040;-57
2023/01/14 12:50:03;;;;;;;160.60;18.58;;;11.30;93.10;;;;;;5062815;28;20028;-57
2023/01/14 12:52:33;;;;;;;191.20;20.48;;;11.30;93.10;;;;;;5059010;28;20062;-57
2023/01/14 12:54:58;;;;;;;175.95;19.02;;;11.30;93.00;;;;;;5078920;28;20108;-57
2023/01/14 12:57:24;;;;;;;192.07;20.80;;;11.40;93.00;;;;;;5062629;28;20500;-57
2023/01/14 13:00:05;;;;;;;196.18;19.60;;;11.40;92.90;;;;;;5071687;28;20024;-57
2023/01/14 13:02:41;;;;;;;186.20;20.27;;;11.40;93.00;;;;;;5081535;28;20116;-57
2023/01/14 13:05:08;;;;;;;207.15;21.38;;;11.40;93.10;;;;;;5058113;28;20024;-56
2023/01/14 13:07:36;;;;;;;272.42;31.48;;;11.50;92.70;;;;;;5087238;28;20032;-57
2023/01/14 13:10:04;;;;;;;169.02;21.75;;;11.50;92.50;;;;;;5066469;28;20091;-57
2023/01/14 13:12:32;;;;;;;235.25;24.05;;;11.50;92.40;;;;;;5067112;28;20312;-57
2023/01/14 13:14:59;;;;;;;213.73;23.23;;;11.50;92.30;;;;;;5103754;28;20039;-57
2023/01/14 13:17:32;;;;;;;249.15;24.50;;;11.60;92.30;;;;;;5087701;28;20028;-57
2023/01/14 13:19:58;;;;;;;220.18;22.25;;;11.50;92.20;;;;;;5052240;28;20055;-57
2023/01/14 13:22:50;;;;;;;213.68;22.27;;;11.50;92.10;;;;;;5070902;28;20028;-57
2023/01/14 13:25:48;;;;;;;220.02;23.63;;;11.60;92.00;;;;;;5064565;28;20140;-57
2023/01/14 13:28:17;;;;;;;207.13;22.35;;;11.60;91.90;;;;;;5086716;28;20043;-57
2023/01/14 13:30:55;;;;;;;191.82;21.40;;;11.60;91.80;;;;;;5080959;28;20040;-57
2023/01/14 13:33:26;;;;;;;197.93;24.98;;;11.70;91.70;;;;;;5071304;28;20044;-57
2023/01/14 13:36:10;;;;;;;244.98;25.45;;;11.70;91.60;;;;;;5070389;28;20029;-57
2023/01/14 13:39:10;;;;;;;231.52;25.27;;;11.70;91.40;;;;;;5087009;28;20029;-57